Los Angeles County Restaurant and Market Inspections

Jurisdiction: Los Angeles County
Source: Los Angeles County Environmental Health

This dataset includes 47k restaurants and markets inspected by Los Angeles County Environmental Health.

LANCASTER · Search Result

Business Name Street Address Last Inspection
RG COUNTRY DINER 2787 W Avenue L Ave # B10, Lancaster, CA 93536 2017-06-30
FRATERNAL ORDER OF EAGLES 232 W Newgrove St, Lancaster, CA 93534 2017-06-29
ANTELOPE VALLEY WINERY 42041 W 20th St, Lancaster, CA 93536 2017-06-29
ALBERTSON'S #1322 43543 20th St W, Lancaster, CA 93536 2017-06-29
SUBWAY 1717 2795 W Ave L, Lancaster, CA 93536 2017-06-28
SUBWAY 930 1210 W Ave K, Lancaster, CA 93534 2017-06-28
VALLARTA SUPERMARKET #14 1801 W Avenue I, Lancaster, CA 93534 2017-06-27
BELLADONNA TEA HOUSE 44054 W 10th St W, Lancaster, CA 93534 2017-06-27
SHELL FOOD MART 1006 W Avenue H, Lancaster, CA 93536 2017-06-27
EL BUEN TACO 1009 W Avenue I, Lancaster, CA 93534 2017-06-27
BIG SHOTZ BAR & GRILL 227 Pillsbury St, Lancaster, CA 93534-3641 2017-06-27
LAN COMM. SHELTER KITCEHEN 44611 Yucca Ave, Lancaster, CA 93534-3601 2017-06-27
PIZZA HUT #26138 44836 W 10th St, Lancaster, CA 93534 2017-06-27
PIONEER EVENT CENTER 45000 Valley Central Way, Lancaster, CA 93536 2017-06-26
NEENACH CAFE & MARKET 22847 W Avenue D, Lancaster, CA 93536 2017-06-26
MARIBEL CAKES AND BAKERY 44205 W 20th St W, Lancaster, CA 93534 2017-06-22
LAEMMLE BLVD CINEMAS 742 W Lancaster Blvd, Lancaster, CA 93534 2017-06-22
ZELDA'S 750 WEST 750 W Lancaster Blvd, Lancaster, CA 93534 2017-06-22
SUBWAY 45790 1821 W Ave I Ste 103, Lancaster, CA 93534 2017-06-22
SUBWAY 34939 805 E Ave K Ste 107, Lancaster, CA 93535 2017-06-22
THE HANGAR 45116 Valley Central Way, Lancaster, CA 93536 2017-06-22
KOREAN PALACE MARKET & RESTA 44525 10th St W, Lancaster, CA 93534 2017-06-21
THE DAIRY 44419 N Division St, Lancaster, CA 93535 2017-06-21
KINETIC BEERWORKS 735 W Lancaster Blvd, Lancaster, CA 93534 2017-06-21
PUEBLO VIEJO 739 W Lancaster Blvd, Lancaster, CA 93534 2017-06-21
NUEVA ESPERANZA RESTAURANT 45216 W 10th St, Lancaster, CA 93534 2017-06-21
ANTELOPE VALLEY SENIOR CENTER 777 W Jackman St, Lancaster, CA 93534 2017-06-21
OLIVES MEDITERRANEAN CAFE 518 W Lancaster Blvd, Lancaster, CA 93534 2017-06-21
YOGURTLAND CA 295 43535 10th St W, Lancaster, CA 93534 2017-06-21
BOOT LEGGER II LIQUOR 111 E Avenue K, Lancaster, CA 93535 2017-06-20
CHILI'S GRILL & BAR 43510 W 10th St W, Lancaster, CA 93534 2017-06-20
BIG TUNA II 43530 W 10th St W Ste #111, Lancaster, CA 93534 2017-06-20
EASY EGG CAFE 41967 50th St W, Lancaster, CA 93536 2017-06-20
SUBWAY 10086 1042 E Ave J, Lancaster, CA 93535 2017-06-20
WIENERSCHNITZEL # 402 1714 W Avenue K, Lancaster, CA 93534 2017-06-19
DD'S DISCOUNTS # 5021 2038 W Avenue J Ave, Lancaster, CA 93536 2017-06-19
ELEGANT AFFAIRS 42525 10th St W, Lancaster, CA 93534 2017-06-19
MCDONALD'S #12937 3015 W Avenue L, Lancaster, CA 93536 2017-06-15
VONS MARKET #2029 4033 W Avenue L, Lancaster, CA 93534 2017-06-15
AMERICAN LEGION #311 44355 40th St, Lancaster, CA 93534 2017-06-15
HELLENIC CENTER 43404 W 30th St W, Lancaster, CA 93536 2017-06-15
BIG NINE MARKET 8841 E Avenue J, Lancaster, CA 93534 2017-06-15
LANCASTER DELI & LIQUOR 42212 W 10th St W Ste 10b, Lancaster, CA 93534 2017-06-15
THE TRAP 2822 E Avenue I, Lancaster, CA 93535 2017-06-15
SHARKEY'S 808 W Avenue L, Lancaster, CA 93534 2017-06-15
EL POLLO LOCO #6122 42839 W 10th St, Lancaster, CA 93534 2017-06-15
VILLAGE LIQUOR 332 E Ave I, Lancaster, CA 93535 2017-06-15
KOREAN CUISINE 44810 Valley Central Way # 2-a, Lancaster, CA 93536 2017-06-14
POLLO LOCO 44402 Valley Central Way, Lancaster, CA 93534 2017-06-14
SUBWAY 22899 2015 W Ave J, Lancaster, CA 93536 2017-06-14
SUBWAY 5453 44764 Valley Central Way, Lancaster, CA 93536 2017-06-14
SUBWAY 23339 3041 W Ave K, Lancaster, CA 93536 2017-06-14
K-TWENTY MINI MART 1850 W Avenue K, Lancaster, CA 93534 2017-06-13
TACO'S GONZALEZ 133 E Avenue J, Lancaster, CA 93535 2017-06-13
CARNICERIA GONZALEZ MEAT DPT 115 E Avenue J, Lancaster, CA 93535 2017-06-13
24 HOUR FITNESS 1220 W Avenue K, Lancaster, CA 93534 2017-06-13
THE WHITEHOUSE 44431 N Division St, Lancaster, CA 93534 2017-06-13
STARBUCK COFFEE #6982 2062 W Avenue K, Lancaster, CA 93536 2017-06-13
LITTLE CAESAR'S PIZZA 43440 W 10th St W # A109, Lancaster, CA 93534 2017-06-13
TARGET STORES #245 43525 W 10th St W, Lancaster, CA 93534 2017-06-13
BERRYSTAR FROZEN YOGURT 43530 W 10th St W Ste #103, Lancaster, CA 93534 2017-06-13
JAMBA JUICE 43530 W 10th St W Ste 113, Lancaster, CA 93534 2017-06-13
KFC/LONG JOHN SILVER 43559 W 10th St W, Lancaster, CA 93534 2017-06-13
PHEBIE'S CAFE 235 W Avenue K, Lancaster, CA 93534 2017-06-13
STARBUCKS #23285 44600 Valley Central Way, Lancaster, CA 93536 2017-06-13
PAPA JOHN'S PIZZA 2018 W K Avenue, Lancaster, CA 93536 2017-06-13
WONDER SUPERMARKET 767 West Ave I, Lancaster, CA 93534-1924 2017-06-13
TROPIKAL CALLE 8 660 W Lancaster Blvd, Lancaster, CA 93534 2017-06-13
TACO BELL 1740 E Avenue J, Lancaster, CA 93535 2017-06-12
JACK IN THE BOX #5309 1799 E Avenue J, Lancaster, CA 93535 2017-06-12
KFC/LONGJOHN SILVER 1827 E Avenue J, Lancaster, CA 93535 2017-06-12
A 1 KABOB 44407 Valley Central Way, Lancaster, CA 93536 2017-06-12
SUBWAY 40929 1766 E Ave J, Lancaster, CA 93535 2017-06-12
SUBWAY 930 1210 W Avenue K, Lancaster, CA 93534 2017-06-08
CARL'S JR #29 852 W Avenue L, Lancaster, CA 93534 2017-06-08
JACK IN THE BOX # 3300 2030 W Avenue K, Lancaster, CA 93536 2017-06-08
DEL TACO #904 4131 W Avenue L, Lancaster, CA 93536 2017-06-08
MCDONALD'S #10088 1200 W Avenue K, Lancaster, CA 93534 2017-06-08
ARCO AM/PM MINI MARKET 111 W Avenue K, Lancaster, CA 93534 2017-06-08
JUANITO'S PLACE 105 W Avenue I, Lancaster, CA 93534 2017-06-08
7-ELEVEN #15968-D 3210 W Avenue L, Lancaster, CA 93536 2017-06-08
SUBMARINA 830 W Avenue L Ste 131, Lancaster, CA 93534 2017-06-08
AVE I MOBIL 849 E Avenue I, Lancaster, CA 93535 2017-06-08
YOSHINOYA 1100 W Avenue K # 103, Lancaster, CA 93534 2017-06-08
TRIMANA HI DESERT GRILL 335 E Ave I, Lancaster, CA 93535 2017-06-08
GET FRESH CAFE 1122 W Ave K, Lancaster, CA 93534 2017-06-08
JUDY'S CAFE 43855 N Sierra Hwy, Lancaster, CA 93534 2017-06-07
PIONEER PUB 44055 N Sierra Hwy, Lancaster, CA 93534 2017-06-07
DELICIOUS BURGERS 44652 W Sierra Hwy, Lancaster, CA 93534 2017-06-07
UNIVERSITY OF ANTELOPE VALLE 44055 N Sierra Hwy, Lancaster, CA 93534 2017-06-07
SHADOW PARK CAFE 44219 N Sierra Hwy, Lancaster, CA 93534 2017-06-07
PATTY'S CAFE 43943 N Sierra Hwy, Lancaster, CA 93534 2017-06-07
SAMMY'S RESTAURANT 44139 N Sierra Hwy, Lancaster, CA 93534 2017-06-07
STATER BROS #146 2845 W Avenue L, Lancaster, CA 93536 2017-06-06
SWEETIE PIE 2853 W Avenue L, Lancaster, CA 93534 2017-06-06
DOMINO'S PIZZA 8115 1007 E Avenue J, Lancaster, CA 93535 2017-06-06
LITTLE CAESAR 4077 W Avenue L, Lancaster, CA 93536 2017-06-06
WINCO FOODS 740 W Avenue K #, Lancaster, CA 93534 2017-06-06
ONE STOP BAKERY 4079 W Avenue L, Lancaster, CA 93536 2017-06-06
DONUTS PLUS 844 E Avenue K, Lancaster, CA 93535 2017-06-06